Página principal
METAR-TAF:

METAR-TAF

Aeroportos :

Irkutsk, Rússia

latitude: 52-16N, longitude: 104-19E, altura: 513 m

Observação actual do tempo

O boletim foi feito há 25 minutos, às 00:00 UTC
Vento 19 kt de noroeste
Temperatura 5°C
Humidade 87%
Pressão 1020 hPa
Visibilidade 10 km ou mais
Encobertoa uma altura de 1300 ft, Cumulonimbus.

METAR: UIII 200000Z 31010MPS 9999 OVC013CB 05/03 Q1020 R30/190055 NOSIG RMK QFE720/0961

Hora: 08:25 (00:25 UTC)

Previsão

O boletim foi feito há 1 hora e 25 minutos, às 23:00 UTC
Previsão válida de 20 às 00 UTC a 20 às 24 UTC
Vento 16 kt de noroeste
Visibilidade 10 km ou mais
Nuvens fragmentadasa uma altura de 1100 ft, Cumulonimbus.
Temporariamente
de 20 às 00 UTC a 20 às 12 UTC
Vento 19 kt de noroeste com rajadas de 29 kt
Visibilidade: 2000 m
Encobertoa uma altura de 700 ft, Cumulonimbus.
aguaceiros de chuva, neve

TAF: UIII 192300Z 2000/2024 32008MPS 9999 BKN011CB TEMPO 2000/2012 32010G15MPS 2000 SHRASN OVC007CB

Observações e previsões do tempo de mais de 4000 aeroportos (mensagens METAR e TAF).

As estações disponíveis são os pontos amarelos e vermelhos sobre o mapa.

Mova o rato sobre o mapa para ver o nome da estação.

Depois clique no ponto para visualizar as observações e previsões meteorológicas.

Para alterar o mapa : clique nos botões verdes com uma cruz preta para aumentar o zoom; no botão verde com uma pitada de zoom; ou nas setas verdes para mapas adjacentes.


METAR-TAF: